Time;durP1;ratioP1;P1;durP2;ratioP2;P2;SDS_P1;SDS_P2;PMS_P1;PMS_P2;Temp;Humidity;BMP_temperature;BMP_pressure;BME280_temperature;BME280_humidity;BME280_pressure;Samples;Min_cycle;Max_cycle;Signal;HPM_P1;HPM_P2
2023/04/14 06:27:20;;;;;;;18.87;9.53;;;3.60;99.90;;;;;;5112340;27;20540;-76
2023/04/14 06:35:13;;;;;;;12.53;6.27;;;3.60;99.90;;;;;;5131928;27;20314;-76
2023/04/14 07:12:04;;;;;;;7.07;4.37;;;4.10;99.90;;;;;;5132901;27;20269;-76
2023/04/14 07:17:14;;;;;;;6.63;3.73;;;4.20;99.90;;;;;;5132910;27;20277;-77
2023/04/14 07:22:49;;;;;;;7.43;2.90;;;4.20;99.90;;;;;;5132869;27;20276;-77
2023/04/14 07:27:37;;;;;;;220.00;59.77;;;4.10;99.90;;;;;;5132757;27;20295;-77
2023/04/14 07:32:51;;;;;;;85.17;47.20;;;4.10;99.90;;;;;;5133910;27;20749;-78
2023/04/14 07:38:19;;;;;;;213.47;96.33;;;4.10;99.90;;;;;;5131629;27;20274;-76
2023/04/14 07:45:17;;;;;;;14.87;7.63;;;;;;;;;;5112471;27;20276;-76
2023/04/14 07:50:51;;;;;;;12.80;6.70;;;4.30;99.90;;;;;;5132272;27;20270;-77
2023/04/14 07:55:07;;;;;;;20.23;13.07;;;4.30;99.90;;;;;;5133088;27;20290;-77
2023/04/14 07:58:28;;;;;;;12.33;8.03;;;4.60;99.90;;;;;;5132949;27;20282;-77
2023/04/14 08:00:54;;;;;;;8.73;6.03;;;4.70;99.90;;;;;;5132136;28;20172;-77
2023/04/14 08:03:19;;;;;;;7.67;5.50;;;5.20;99.90;;;;;;5132045;28;20272;-77
2023/04/14 08:05:46;;;;;;;21.90;12.37;;;5.40;99.90;;;;;;5130827;28;20178;-77
2023/04/14 08:08:13;;;;;;;10.53;5.80;;;5.60;99.90;;;;;;5131848;27;20168;-77
2023/04/14 08:10:40;;;;;;;12.43;6.50;;;5.80;99.90;;;;;;5131876;27;20603;-77
2023/04/14 08:13:06;;;;;;;9.03;5.37;;;5.40;99.90;;;;;;5131691;27;20511;-76
2023/04/14 08:15:31;;;;;;;10.63;4.83;;;5.40;99.90;;;;;;5131711;27;20182;-77
2023/04/14 08:17:57;;;;;;;18.87;13.60;;;;;;;;;;5131587;27;20191;-77
2023/04/14 08:20:23;;;;;;;10.47;6.20;;;5.40;99.90;;;;;;5131517;28;20163;-76
2023/04/14 08:27:04;;;;;;;11.07;4.70;;;5.40;99.90;;;;;;5132691;27;20267;-76
2023/04/14 08:29:30;;;;;;;9.83;4.40;;;5.30;99.90;;;;;;5131931;28;20177;-76
2023/04/14 08:31:55;;;;;;;7.63;5.20;;;5.50;99.90;;;;;;5131992;28;20250;-76
2023/04/14 08:36:35;;;;;;;8.13;4.27;;;5.20;99.90;;;;;;5071258;28;20547;-77
2023/04/14 08:41:58;;;;;;;10.20;4.50;;;5.10;99.90;;;;;;5132647;27;20267;-76
2023/04/14 09:13:19;;;;;;;13.13;5.57;;;4.80;99.90;;;;;;5132564;27;20309;-76
2023/04/14 09:18:04;;;;;;;8.87;5.20;;;5.00;99.90;;;;;;5132379;27;20274;-77
2023/04/14 09:21:44;;;;;;;10.23;5.60;;;5.10;99.90;;;;;;5132162;27;20286;-76
2023/04/14 09:24:09;;;;;;;11.23;5.90;;;5.30;99.90;;;;;;5132397;28;20425;-77
2023/04/14 09:26:36;;;;;;;8.73;6.13;;;5.90;99.90;;;;;;5131927;27;20167;-76
2023/04/14 09:29:02;;;;;;;11.83;5.77;;;6.30;99.90;;;;;;5130859;28;20221;-77
2023/04/14 09:31:28;;;;;;;7.33;5.10;;;;;;;;;;5130413;28;20269;-77
2023/04/14 09:33:53;;;;;;;9.30;5.60;;;6.70;99.90;;;;;;5131880;28;20195;-77
2023/04/14 09:36:22;;;;;;;11.40;5.90;;;6.90;99.90;;;;;;5130530;28;20266;-77
2023/04/14 09:38:49;;;;;;;11.70;5.40;;;6.90;99.90;;;;;;5131743;27;20178;-77
2023/04/14 09:41:24;;;;;;;9.60;4.73;;;6.70;99.90;;;;;;5131631;27;20200;-77
2023/04/14 09:43:51;;;;;;;8.33;6.43;;;7.00;99.90;;;;;;5130414;28;20191;-77
2023/04/14 09:46:17;;;;;;;10.70;5.20;;;6.90;99.90;;;;;;5131542;27;20259;-77
2023/04/14 09:48:54;;;;;;;8.13;4.13;;;7.00;99.90;;;;;;5130380;28;20204;-77
2023/04/14 09:51:37;;;;;;;7.13;5.10;;;7.00;99.90;;;;;;5130253;28;20267;-77
2023/04/14 09:54:04;;;;;;;8.97;5.23;;;7.30;99.90;;;;;;5130218;28;20685;-77
2023/04/14 09:56:30;;;;;;;7.07;4.63;;;7.40;99.90;;;;;;5130047;28;20272;-77
2023/04/14 09:59:00;;;;;;;10.27;5.37;;;7.50;99.90;;;;;;5130080;28;20202;-77
2023/04/14 10:01:31;;;;;;;7.33;4.00;;;7.40;99.90;;;;;;5131098;27;20254;-77
2023/04/14 10:03:56;;;;;;;9.03;4.07;;;7.30;99.90;;;;;;5131270;27;20186;-77
2023/04/14 10:06:23;;;;;;;13.77;5.33;;;7.00;99.90;;;;;;5131421;27;20177;-77
2023/04/14 10:08:53;;;;;;;8.07;4.80;;;7.00;99.90;;;;;;5131404;27;20169;-78
2023/04/14 10:11:29;;;;;;;12.07;5.77;;;7.10;99.90;;;;;;5129639;28;20662;-77
2023/04/14 10:13:57;;;;;;;12.27;5.33;;;7.10;99.90;;;;;;5129784;28;20198;-77
2023/04/14 10:16:24;;;;;;;12.43;4.77;;;7.10;99.90;;;;;;5131319;27;20559;-77
2023/04/14 10:18:52;;;;;;;8.13;3.57;;;7.50;99.90;;;;;;5129834;28;20179;-77
2023/04/14 10:21:20;;;;;;;9.27;3.70;;;7.70;99.90;;;;;;5130510;27;20204;-77
2023/04/14 10:23:47;;;;;;;10.07;5.40;;;8.70;99.90;;;;;;5130772;27;20261;-77
2023/04/14 10:26:13;;;;;;;6.63;3.90;;;8.70;99.90;;;;;;5130153;28;20235;-77
2023/04/14 10:28:49;;;;;;;12.67;4.20;;;8.90;99.90;;;;;;5131111;27;20220;-77
2023/04/14 10:31:21;;;;;;;8.37;3.50;;;9.20;99.90;;;;;;5126297;28;20182;-77
2023/04/14 10:33:47;;;;;;;6.90;3.43;;;9.40;99.90;;;;;;5117089;28;20269;-77
2023/04/14 10:36:25;;;;;;;8.30;3.57;;;9.20;99.90;;;;;;5115804;28;20206;-77
2023/04/14 10:38:59;;;;;;;7.73;3.53;;;9.80;99.90;;;;;;5115805;28;20179;-77
2023/04/14 10:41:25;;;;;;;7.43;2.93;;;9.90;99.90;;;;;;5116874;28;20207;-77
2023/04/14 10:43:50;;;;;;;7.23;3.13;;;9.70;99.90;;;;;;5116785;28;20190;-77
2023/04/14 10:46:16;;;;;;;7.17;3.67;;;9.40;99.90;;;;;;5117075;28;20164;-77
2023/04/14 10:48:45;;;;;;;7.63;2.97;;;9.30;99.90;;;;;;5117097;28;20258;-77
2023/04/14 10:51:12;;;;;;;8.60;2.80;;;9.00;99.90;;;;;;5116666;28;20201;-77
2023/04/14 10:53:51;;;;;;;10.53;3.33;;;8.80;99.90;;;;;;5116651;28;20190;-77
2023/04/14 10:56:20;;;;;;;7.33;3.60;;;8.40;99.90;;;;;;5116816;28;20178;-77
2023/04/14 10:58:55;;;;;;;7.00;2.97;;;8.40;99.90;;;;;;5116715;27;20255;-77
2023/04/14 11:01:26;;;;;;;7.60;2.80;;;8.40;99.90;;;;;;5116383;28;20243;-77
2023/04/14 11:03:55;;;;;;;13.00;3.67;;;8.60;99.90;;;;;;5115081;28;20676;-77
2023/04/14 11:06:49;;;;;;;5.47;2.47;;;8.90;99.90;;;;;;5116685;27;20224;-77
2023/04/14 11:09:31;;;;;;;7.57;2.90;;;9.20;99.90;;;;;;5116569;28;20178;-77
2023/04/14 11:12:03;;;;;;;5.20;2.80;;;9.30;99.90;;;;;;5116377;27;20173;-77
2023/04/14 11:14:33;;;;;;;7.53;2.77;;;9.40;99.90;;;;;;5114996;28;20240;-77
2023/04/14 11:17:00;;;;;;;9.77;3.47;;;9.60;99.90;;;;;;5116435;28;20206;-77
2023/04/14 11:19:26;;;;;;;7.93;2.37;;;9.90;99.90;;;;;;5116167;28;20167;-77
2023/04/14 11:21:52;;;;;;;3.33;1.80;;;10.20;99.90;;;;;;5116658;27;20176;-77
2023/04/14 11:24:22;;;;;;;6.77;2.27;;;10.40;99.90;;;;;;5116376;28;20527;-77
2023/04/14 11:26:52;;;;;;;5.87;2.37;;;10.80;99.90;;;;;;5116188;28;20691;-77
2023/04/14 11:29:18;;;;;;;5.40;2.33;;;10.60;99.90;;;;;;5116098;28;20167;-77
2023/04/14 11:31:44;;;;;;;7.63;2.67;;;9.90;99.90;;;;;;5116056;28;20164;-77
2023/04/14 11:34:10;;;;;;;5.33;2.30;;;9.30;99.90;;;;;;5114743;28;20198;-77
2023/04/14 11:36:38;;;;;;;12.93;2.93;;;8.80;99.90;;;;;;5116271;28;20667;-77
2023/04/14 11:39:07;;;;;;;4.23;2.50;;;8.50;99.90;;;;;;5115759;28;20700;-77
2023/04/14 11:41:32;;;;;;;6.63;2.80;;;8.40;99.90;;;;;;5114362;28;20203;-77
2023/04/14 11:43:58;;;;;;;5.30;2.50;;;8.40;99.90;;;;;;5113434;28;20591;-77
2023/04/14 11:46:25;;;;;;;6.90;2.57;;;8.30;99.90;;;;;;5115794;28;20170;-77
2023/04/14 11:48:56;;;;;;;6.33;3.27;;;8.40;99.90;;;;;;5115754;28;20199;-77
2023/04/14 11:51:32;;;;;;;7.17;2.80;;;8.70;99.90;;;;;;5115367;28;20176;-77
2023/04/14 11:54:02;;;;;;;3.40;2.37;;;9.00;99.90;;;;;;5114224;28;20207;-77
2023/04/14 11:56:30;;;;;;;6.37;2.40;;;9.50;99.90;;;;;;5115544;28;20587;-76
2023/04/14 11:59:00;;;;;;;5.93;2.70;;;10.40;99.90;;;;;;5115663;28;20199;-77
2023/04/14 12:01:27;;;;;;;4.03;2.03;;;11.10;99.90;;;;;;5113958;28;20210;-77
2023/04/14 12:03:53;;;;;;;7.50;2.97;;;11.40;99.90;;;;;;5115241;28;20187;-77
2023/04/14 12:06:19;;;;;;;4.83;2.20;;;12.20;99.90;;;;;;5114821;28;20182;-77
2023/04/14 12:08:51;;;;;;;5.40;2.00;;;11.80;99.90;;;;;;5115634;28;20199;-77
2023/04/14 12:11:16;;;;;;;9.67;3.30;;;11.90;99.90;;;;;;5115323;28;20167;-77
2023/04/14 12:13:43;;;;;;;7.40;3.00;;;12.30;99.90;;;;;;5114116;28;20206;-77
2023/04/14 12:16:11;;;;;;;4.57;2.17;;;12.60;99.90;;;;;;5115199;27;20171;-77
2023/04/14 12:18:36;;;;;;;6.00;2.57;;;12.70;99.90;;;;;;5113928;28;20187;-78
2023/04/14 12:21:04;;;;;;;5.93;2.30;;;12.20;99.90;;;;;;5114598;28;20199;-77
2023/04/14 12:23:40;;;;;;;5.30;2.20;;;11.90;99.90;;;;;;5115022;28;20187;-77
2023/04/14 12:26:12;;;;;;;7.13;2.53;;;12.00;99.90;;;;;;5115247;28;20634;-77
2023/04/14 12:28:40;;;;;;;5.67;2.87;;;12.40;99.90;;;;;;5113700;28;20179;-77
2023/04/14 12:31:06;;;;;;;2.93;1.53;;;12.20;99.90;;;;;;5113574;28;20175;-77
2023/04/14 12:33:32;;;;;;;3.07;1.43;;;12.60;99.90;;;;;;5115104;28;20538;-78
2023/04/14 12:36:11;;;;;;;2.80;1.37;;;12.60;99.90;;;;;;5115071;28;20239;-77
2023/04/14 12:38:37;;;;;;;2.63;1.20;;;12.80;99.90;;;;;;5113879;28;20171;-78
2023/04/14 12:41:04;;;;;;;2.17;1.20;;;12.60;99.90;;;;;;5114522;28;20188;-77
2023/04/14 12:43:36;;;;;;;3.40;0.97;;;11.20;99.90;;;;;;5113563;28;20199;-77
2023/04/14 12:46:03;;;;;;;3.27;1.23;;;10.10;99.90;;;;;;5114906;28;20279;-78
2023/04/14 12:48:43;;;;;;;3.17;1.00;;;9.40;99.90;;;;;;5115044;28;20164;-78
2023/04/14 12:51:14;;;;;;;4.23;1.47;;;9.20;99.90;;;;;;5113232;28;20176;-77
2023/04/14 12:53:41;;;;;;;2.73;1.80;;;8.70;99.90;;;;;;5114354;28;20199;-77
2023/04/14 12:56:09;;;;;;;2.53;1.20;;;8.30;99.90;;;;;;5112848;28;20680;-77
2023/04/14 12:58:42;;;;;;;3.50;1.60;;;8.20;99.90;;;;;;5114396;28;20266;-77
2023/04/14 13:01:09;;;;;;;1.87;1.40;;;8.10;99.90;;;;;;5114179;28;20202;-77
2023/04/14 13:03:50;;;;;;;2.23;1.10;;;8.00;99.90;;;;;;5114314;28;20270;-77
2023/04/14 13:06:17;;;;;;;2.40;1.03;;;8.30;99.90;;;;;;5114553;28;20164;-77
2023/04/14 13:08:47;;;;;;;5.93;1.10;;;9.40;99.90;;;;;;5114267;28;20185;-77
2023/04/14 13:11:14;;;;;;;5.50;1.70;;;9.70;99.90;;;;;;5114095;28;20171;-77
2023/04/14 13:13:44;;;;;;;3.37;1.20;;;10.90;99.90;;;;;;5115453;28;20215;-79
2023/04/14 13:16:11;;;;;;;1.70;0.93;;;11.80;99.90;;;;;;5113057;28;20235;-78
2023/04/14 13:18:37;;;;;;;3.60;1.40;;;11.30;99.90;;;;;;5114228;28;20172;-77
2023/04/14 13:21:03;;;;;;;4.80;1.33;;;10.80;99.90;;;;;;5112624;28;20215;-77
2023/04/14 13:23:30;;;;;;;3.67;1.40;;;10.10;99.90;;;;;;5112813;28;20286;-77
2023/04/14 13:25:56;;;;;;;5.47;1.50;;;9.50;99.90;;;;;;5112968;28;20182;-77
2023/04/14 13:28:22;;;;;;;2.97;1.43;;;9.20;99.90;;;;;;5112951;28;20172;-77
2023/04/14 13:30:53;;;;;;;4.57;1.40;;;9.10;99.90;;;;;;5112576;28;20175;-77
2023/04/14 13:33:20;;;;;;;3.57;1.57;;;9.00;99.90;;;;;;5114071;28;20202;-77
2023/04/14 13:35:45;;;;;;;3.53;1.60;;;9.00;99.90;;;;;;5114011;28;20565;-77
2023/04/14 13:38:11;;;;;;;4.10;2.10;;;9.10;99.90;;;;;;5114217;28;20171;-77
2023/04/14 13:40:37;;;;;;;3.93;1.97;;;8.90;99.90;;;;;;5112520;28;20191;-77
2023/04/14 13:43:03;;;;;;;5.43;1.80;;;8.80;99.90;;;;;;5114593;28;20171;-78
2023/04/14 13:45:28;;;;;;;5.07;2.33;;;8.80;99.90;;;;;;5114461;28;20191;-78
2023/04/14 13:47:54;;;;;;;4.87;2.23;;;8.70;99.90;;;;;;5112951;28;20176;-79
2023/04/14 13:50:21;;;;;;;7.47;4.87;;;8.70;99.90;;;;;;5114370;28;20183;-79
2023/04/14 13:52:47;;;;;;;5.83;3.33;;;8.80;99.90;;;;;;5113212;28;20179;-78
2023/04/14 13:55:13;;;;;;;5.20;3.30;;;9.70;99.90;;;;;;5114598;28;20244;-76
2023/04/14 13:57:38;;;;;;;4.57;2.60;;;11.00;99.90;;;;;;5113903;28;20179;-76
2023/04/14 14:00:08;;;;;;;5.93;3.60;;;11.90;99.90;;;;;;5113383;28;20203;-78
2023/04/14 14:02:40;;;;;;;5.53;3.00;;;12.10;99.90;;;;;;5115565;28;20175;-80
2023/04/14 14:05:07;;;;;;;3.37;2.00;;;12.40;99.90;;;;;;5118163;28;20630;-79
2023/04/14 14:07:36;;;;;;;4.80;2.60;;;12.10;99.90;;;;;;5120033;28;20168;-79
2023/04/14 14:10:02;;;;;;;3.63;1.80;;;12.10;99.90;;;;;;5118457;28;20183;-78
2023/04/14 14:12:28;;;;;;;3.97;1.50;;;12.30;99.90;;;;;;5119406;28;20198;-79
2023/04/14 14:14:54;;;;;;;3.27;1.43;;;11.60;99.90;;;;;;5119230;28;20744;-78
2023/04/14 14:17:20;;;;;;;4.87;1.63;;;11.00;99.90;;;;;;5120345;28;20203;-79
2023/04/14 14:19:45;;;;;;;2.03;1.33;;;11.30;99.90;;;;;;5120537;28;20208;-79
2023/04/14 14:22:11;;;;;;;2.40;1.13;;;11.60;99.90;;;;;;5120766;28;20264;-79
2023/04/14 14:24:39;;;;;;;2.87;1.17;;;12.00;99.90;;;;;;5120717;28;20657;-79
2023/04/14 14:27:05;;;;;;;2.23;1.30;;;12.20;99.90;;;;;;5121496;28;20198;-79
2023/04/14 14:29:30;;;;;;;3.93;1.50;;;12.60;99.90;;;;;;5120496;28;20265;-80
2023/04/14 14:31:56;;;;;;;4.37;2.10;;;12.30;99.90;;;;;;5120889;28;20581;-79
2023/04/14 14:34:22;;;;;;;4.20;1.50;;;12.20;99.90;;;;;;5120885;28;20195;-79
2023/04/14 14:36:47;;;;;;;4.20;1.70;;;11.50;99.90;;;;;;5123027;28;20181;-80
2023/04/14 14:39:13;;;;;;;3.63;1.70;;;11.90;99.90;;;;;;5120715;28;20552;-79
2023/04/14 14:41:39;;;;;;;4.57;1.90;;;12.70;99.90;;;;;;5120220;28;20542;-79
2023/04/14 14:44:05;;;;;;;4.40;1.63;;;13.20;99.90;;;;;;5122037;28;20572;-79
2023/04/14 14:46:30;;;;;;;3.40;1.23;;;13.10;99.90;;;;;;5120460;28;20178;-81
2023/04/14 14:48:56;;;;;;;3.97;1.60;;;12.90;99.90;;;;;;5120345;28;20539;-78
2023/04/14 14:51:23;;;;;;;3.80;1.57;;;11.80;99.90;;;;;;5117992;28;20178;-79
2023/04/14 14:53:49;;;;;;;3.77;1.43;;;11.40;99.90;;;;;;5117638;28;20193;-79
2023/04/14 14:56:14;;;;;;;3.87;1.60;;;10.90;99.90;;;;;;5120188;28;20663;-78
2023/04/14 14:58:40;;;;;;;1.97;1.27;;;10.50;99.90;;;;;;5118219;28;20250;-77
2023/04/14 15:01:06;;;;;;;2.87;1.47;;;10.50;99.90;;;;;;5117161;28;20191;-78
2023/04/14 15:03:32;;;;;;;4.13;1.60;;;10.80;99.90;;;;;;5116831;28;20298;-79
2023/04/14 15:05:57;;;;;;;6.20;1.47;;;11.40;99.90;;;;;;5119031;28;20172;-79
2023/04/14 15:08:23;;;;;;;3.23;1.63;;;10.90;99.90;;;;;;5117411;28;20710;-79
2023/04/14 15:10:52;;;;;;;2.27;1.17;;;10.70;99.90;;;;;;5117466;28;20197;-78
2023/04/14 15:13:18;;;;;;;5.50;1.97;;;10.40;99.90;;;;;;5115845;28;20197;-78
2023/04/14 15:15:44;;;;;;;5.77;1.70;;;10.20;99.90;;;;;;5118169;28;20179;-78
2023/04/14 15:18:10;;;;;;;5.17;1.93;;;10.00;99.90;;;;;;5116940;28;20175;-78
2023/04/14 15:20:36;;;;;;;4.30;1.40;;;10.10;99.90;;;;;;5116457;27;20247;-77
2023/04/14 15:23:05;;;;;;;3.53;1.40;;;10.20;99.90;;;;;;5116527;28;20196;-77
2023/04/14 15:25:31;;;;;;;7.23;1.57;;;10.10;99.90;;;;;;5116212;28;20254;-79
2023/04/14 15:27:57;;;;;;;3.83;1.57;;;10.20;99.90;;;;;;5116037;28;20652;-77
2023/04/14 15:30:23;;;;;;;4.83;1.60;;;10.20;99.90;;;;;;5115994;28;20730;-77
2023/04/14 15:32:49;;;;;;;4.73;1.90;;;10.40;99.90;;;;;;5116486;28;20197;-77
2023/04/14 15:35:15;;;;;;;5.83;1.90;;;11.60;99.90;;;;;;5117363;28;20270;-78
2023/04/14 15:37:40;;;;;;;6.90;1.83;;;11.80;99.90;;;;;;5118127;28;20203;-78
2023/04/14 15:40:08;;;;;;;3.77;1.60;;;11.30;99.90;;;;;;5117223;28;20724;-78
2023/04/14 15:42:34;;;;;;;3.20;1.60;;;10.90;99.90;;;;;;5117581;28;20202;-78
2023/04/14 15:45:00;;;;;;;5.23;1.60;;;10.90;99.90;;;;;;5117515;28;20188;-78
2023/04/14 15:47:25;;;;;;;5.00;1.60;;;11.80;99.90;;;;;;5118627;28;20221;-78
2023/04/14 15:49:51;;;;;;;6.00;1.90;;;12.10;99.90;;;;;;5119605;28;20172;-79
2023/04/14 15:52:17;;;;;;;7.30;2.10;;;11.40;99.90;;;;;;5119972;28;20179;-78
2023/04/14 15:54:43;;;;;;;3.70;1.77;;;10.50;99.90;;;;;;5117214;28;20202;-78
2023/04/14 15:57:08;;;;;;;5.90;1.50;;;10.20;99.90;;;;;;5117263;28;20214;-78
2023/04/14 15:59:34;;;;;;;4.70;1.57;;;9.80;99.90;;;;;;5116656;28;20193;-78
2023/04/14 16:02:01;;;;;;;5.13;2.23;;;9.90;99.90;;;;;;5116872;28;20544;-78
2023/04/14 16:04:27;;;;;;;4.43;2.30;;;9.80;99.90;;;;;;5115411;28;20191;-78
2023/04/14 16:06:54;;;;;;;3.77;2.33;;;9.70;99.90;;;;;;5117283;28;20164;-78
2023/04/14 16:09:19;;;;;;;3.63;1.67;;;9.60;99.90;;;;;;5116602;28;20213;-77
2023/04/14 16:11:46;;;;;;;3.83;1.60;;;9.50;99.90;;;;;;5114663;28;20183;-78
2023/04/14 16:14:12;;;;;;;5.73;2.27;;;9.30;99.90;;;;;;5118217;28;20656;-79
2023/04/14 16:16:38;;;;;;;3.97;1.60;;;9.20;99.90;;;;;;5119856;28;20225;-80
2023/04/14 16:19:04;;;;;;;6.37;1.60;;;9.20;99.90;;;;;;5117870;28;20171;-79
2023/04/14 16:21:30;;;;;;;5.73;1.70;;;9.00;99.90;;;;;;5119275;28;20207;-79
2023/04/14 16:23:55;;;;;;;3.07;1.60;;;8.80;99.90;;;;;;5119818;28;20549;-79
2023/04/14 16:26:22;;;;;;;3.23;1.27;;;8.70;99.90;;;;;;5118554;28;20295;-80
2023/04/14 16:28:48;;;;;;;4.23;1.63;;;8.50;99.90;;;;;;5119871;28;20164;-80
2023/04/14 16:31:14;;;;;;;4.13;1.93;;;8.50;99.90;;;;;;5119524;28;20535;-80
2023/04/14 16:33:40;;;;;;;2.87;1.43;;;8.40;99.90;;;;;;5118071;28;20240;-80
2023/04/14 16:59:09;;;;;;;4.93;3.00;;;;;;;;;;5135911;27;20277;-81
2023/04/14 17:11:14;;;;;;;4.27;2.83;;;8.50;99.90;;;;;;5135823;27;20269;-79
